»·PEaware :: UAL1227 KSFO-KSBA

UAL1227 :: KSFO-KSBA

FLIGHT INFORMATION

Flight Status: Arrived
Operator:
United Airlines
More flights by this operator :: More flights under this callsign
Pilot: Anonymous 12234 (12234)
Aircraft: BOEING 737-200
(B732)
More flights by this aircraft type
Origin: KSFO San Francisco Intl
United States
Destination: KSBA Santa Barbara Mun
United States
More flights between these airports :: More routes between these airports
Route: +OFFSH1 RZS
File this flight plan on PilotEdge
Remarks:
Altitude:
(Current/Filed)
27,000ft
Speed:
(Current/Filed)
443kts
Departed: 27-Jan-18 06:44 PM
Arrived: 27-Jan-18 07:34 PM
Distance/Time
Traveled:
228nm/0:50
Distance/Time
To Go:
Arrived

Flight Plot

Page will automatically refresh every two minutes.

Flight plan parsing failed; only flown route is shown


Map Options




Map Legend


Flown Route
Filed Route
Departure Airport
Arrival Airport
Navaid (VOR, NDB)
Fix

Horizontal Profiles

Position Reports

Time Latitude Longitude Heading Altitude Ground
Speed
27-Jan-18 18:19 37.619200 -122.383562 291 22ft 0kts
27-Jan-18 18:20 37.619200 -122.383562 291 22ft 0kts
27-Jan-18 18:21 37.619200 -122.383562 291 22ft 0kts
27-Jan-18 18:22 37.619200 -122.383562 291 22ft 0kts
27-Jan-18 18:23 37.619200 -122.383562 291 22ft 0kts
27-Jan-18 18:24 37.619200 -122.383562 291 22ft 0kts
27-Jan-18 18:25 37.619200 -122.383562 291 22ft 0kts
27-Jan-18 18:26 37.619200 -122.383562 291 22ft 0kts
27-Jan-18 18:27 37.619200 -122.383562 291 22ft 0kts
27-Jan-18 18:28 37.619200 -122.383562 291 22ft 0kts
27-Jan-18 18:29 37.619200 -122.383562 291 22ft 0kts
27-Jan-18 18:30 37.619200 -122.383562 291 22ft 0kts
27-Jan-18 18:31 37.619200 -122.383562 291 22ft 0kts
27-Jan-18 18:32 37.619200 -122.383562 291 22ft 0kts
27-Jan-18 18:33 37.619200 -122.383562 291 22ft 0kts
27-Jan-18 18:34 37.619200 -122.383562 291 22ft 0kts
27-Jan-18 18:35 37.619200 -122.383562 291 22ft 0kts
27-Jan-18 18:36 37.619200 -122.383562 291 22ft 0kts
27-Jan-18 18:37 37.619200 -122.383562 291 22ft 0kts
27-Jan-18 18:38 37.619200 -122.383562 291 22ft 0kts
27-Jan-18 18:39 37.619200 -122.383562 291 22ft 0kts
27-Jan-18 18:40 37.619199 -122.383561 291 22ft 0kts
27-Jan-18 18:41 37.618915 -122.382973 357 22ft 2kts
27-Jan-18 18:42 37.619214 -122.382734 28 22ft 0kts
27-Jan-18 18:43 37.619215 -122.382734 28 22ft 0kts
27-Jan-18 18:44 37.619214 -122.382734 28 22ft 0kts
27-Jan-18 18:45 37.619214 -122.382734 28 22ft 0kts
27-Jan-18 18:46 37.619214 -122.382734 28 22ft 0kts
27-Jan-18 18:47 37.619055 -122.380636 124 22ft 9kts
27-Jan-18 18:48 37.614968 -122.380746 207 22ft 22kts
27-Jan-18 18:49 37.609273 -122.384691 190 22ft 15kts
27-Jan-18 18:50 37.613499 -122.379252 26 22ft 103kts
27-Jan-18 18:51 37.651236 -122.360273 347 2197ft 147kts
27-Jan-18 18:52 37.697248 -122.360878 344 4588ft 195kts
27-Jan-18 18:53 37.707792 -122.434242 233 6928ft 307kts
27-Jan-18 18:54 37.641532 -122.503021 217 9802ft 323kts
27-Jan-18 18:55 37.561791 -122.564487 216 11933ft 355kts
27-Jan-18 18:56 37.475617 -122.626150 216 14345ft 365kts
27-Jan-18 18:57 37.376153 -122.652146 180 16302ft 402kts
27-Jan-18 18:58 37.263649 -122.641951 179 18226ft 413kts
27-Jan-18 18:59 37.150153 -122.618442 175 20102ft 419kts
27-Jan-18 19:00 37.036786 -122.589760 176 21767ft 421kts
27-Jan-18 19:01 36.923015 -122.560145 176 23281ft 422kts
27-Jan-18 19:02 36.811575 -122.531335 177 24499ft 424kts
27-Jan-18 19:03 36.695834 -122.501296 177 25484ft 431kts
27-Jan-18 19:04 36.578792 -122.470904 177 26378ft 436kts
27-Jan-18 19:05 36.459719 -122.437142 175 27192ft 443kts
27-Jan-18 19:06 36.352419 -122.359002 128 27412ft 498kts
27-Jan-18 19:07 36.275712 -122.221356 128 27373ft 515kts
27-Jan-18 19:08 36.195133 -122.076694 127 27370ft 512kts
27-Jan-18 19:09 36.115363 -121.933788 129 27373ft 506kts
27-Jan-18 19:10 36.010859 -121.828022 143 27382ft 495kts
27-Jan-18 19:11 35.915939 -121.704317 135 27380ft 503kts
27-Jan-18 19:12 35.827535 -121.579677 134 27378ft 505kts
27-Jan-18 19:13 35.748237 -121.465846 134 27354ft 507kts
27-Jan-18 19:14 35.657998 -121.336200 135 27346ft 509kts
27-Jan-18 19:15 35.570803 -121.211293 135 27340ft 506kts
27-Jan-18 19:16 35.480346 -121.082358 135 27343ft 504kts
27-Jan-18 19:17 35.390598 -120.954836 135 26637ft 496kts
27-Jan-18 19:18 35.303138 -120.830999 135 25636ft 479kts
27-Jan-18 19:19 35.225169 -120.716379 133 23737ft 464kts
27-Jan-18 19:20 35.148233 -120.614510 139 21742ft 452kts
27-Jan-18 19:21 35.059477 -120.515161 140 19685ft 442kts
27-Jan-18 19:22 34.967860 -120.422724 142 17788ft 429kts
27-Jan-18 19:23 34.890679 -120.325722 128 16204ft 409kts
27-Jan-18 19:24 34.832639 -120.241701 126 14793ft 394kts
27-Jan-18 19:25 34.769096 -120.148834 126 13229ft 377kts
27-Jan-18 19:26 34.705973 -120.056430 127 11519ft 364kts
27-Jan-18 19:27 34.647706 -119.970718 134 10339ft 338kts
27-Jan-18 19:28 34.595542 -119.895096 135 10242ft 264kts
27-Jan-18 19:29 34.553795 -119.835192 129 10015ft 209kts
27-Jan-18 19:30 34.520170 -119.788271 127 9568ft 179kts
27-Jan-18 19:31 34.480558 -119.744389 128 7870ft 220kts
27-Jan-18 19:32 34.441757 -119.692189 122 6965ft 205kts
27-Jan-18 19:33 34.405971 -119.643534 121 5953ft 196kts
27-Jan-18 19:34 34.359230 -119.618206 212 4776ft 227kts
27-Jan-18 19:35 34.358520 -119.679692 314 3576ft 192kts
27-Jan-18 19:36 34.392702 -119.723785 327 2504ft 189kts
27-Jan-18 19:37 34.426127 -119.759488 291 1580ft 137kts
27-Jan-18 19:38 34.428547 -119.804395 269 551ft 131kts
27-Jan-18 19:39 34.427664 -119.846049 267 22ft 88kts
27-Jan-18 19:40 34.426425 -119.851068 88 22ft 22kts
27-Jan-18 19:41 34.426597 -119.842690 89 22ft 25kts
27-Jan-18 19:42 34.425486 -119.837946 159 22ft 9kts
27-Jan-18 19:43 34.425104 -119.837240 114 22ft 0kts
27-Jan-18 19:44 34.425104 -119.837240 114 22ft 0kts
27-Jan-18 19:45 34.425104 -119.837240 114 22ft 0kts
27-Jan-18 19:46 34.425104 -119.837240 114 22ft 0kts
27-Jan-18 19:47 34.425104 -119.837240 114 22ft 0kts

Navigation Log

Ident Type
Flight plan parsing failed, navigation log unavailable